createdAt,value
2022-09-28T00:06:15.538Z,8.1
2022-09-28T00:16:15.999Z,8
2022-09-28T00:26:16.299Z,7.9
2022-09-28T00:36:16.735Z,7.8
2022-09-28T00:46:17.280Z,7.8
2022-09-28T00:56:17.850Z,7.7
2022-09-28T01:16:19.320Z,7.6
2022-09-28T01:26:20.122Z,7.7
2022-09-28T01:36:20.313Z,7.7
2022-09-28T01:46:20.696Z,7.7
2022-09-28T01:56:21.349Z,7.7
2022-09-28T02:06:22.199Z,7.8
2022-09-28T02:16:22.871Z,7.8
2022-09-28T02:26:23.187Z,7.7
2022-09-28T02:36:23.979Z,7.7
2022-09-28T02:56:25.214Z,7.7
2022-09-28T03:06:25.529Z,7.7
2022-09-28T03:16:26.762Z,7.7
2022-09-28T03:26:27.231Z,7.7
2022-09-28T03:46:28.185Z,7.8
2022-09-28T03:56:29.174Z,7.8
2022-09-28T04:06:29.467Z,7.8
2022-09-28T04:16:30.355Z,7.8
2022-09-28T04:26:31.299Z,7.8
2022-09-28T04:36:32.395Z,7.9
2022-09-28T04:46:32.709Z,7.8
2022-09-28T04:56:32.900Z,7.8
2022-09-28T05:06:33.922Z,7.9
2022-09-28T05:16:34.181Z,7.9
2022-09-28T05:26:34.934Z,7.9
2022-09-28T05:46:36.050Z,7.9
2022-09-28T05:56:36.656Z,7.9
2022-09-28T06:06:37.071Z,7.9
2022-09-28T06:16:41.679Z,7.9
2022-09-28T06:26:38.347Z,8
2022-09-28T06:56:41.398Z,8.1
2022-09-28T07:17:07.555Z,8.4
2022-09-28T07:36:43.455Z,8.5
2022-09-28T07:46:44.307Z,8.6
2022-09-28T08:26:46.774Z,8.9
2022-09-28T09:26:48.750Z,10
2022-09-28T09:46:49.900Z,10.3
2022-09-28T09:56:50.351Z,10.5
2022-09-28T10:06:50.736Z,10.6
2022-09-28T10:26:51.369Z,10.8
2022-09-28T10:36:51.533Z,10.9
2022-09-28T11:06:53.346Z,11.4
2022-09-28T11:16:54.299Z,11.7
2022-09-28T11:26:55.189Z,11.9
2022-09-28T11:36:59.627Z,12
2022-09-28T11:46:56.948Z,12.3
2022-09-28T11:56:57.567Z,13.2
2022-09-28T12:06:57.909Z,13.5
2022-09-28T12:17:06.192Z,13.5
2022-09-28T12:36:59.816Z,12.9
2022-09-28T12:47:00.189Z,13.3
2022-09-28T12:57:00.403Z,13.2
2022-09-28T13:17:01.710Z,13
2022-09-28T13:27:02.482Z,12.7
2022-09-28T13:37:03.246Z,12.9
2022-09-28T13:57:04.381Z,14.6
2022-09-28T14:07:05.177Z,14.7
2022-09-28T14:17:05.815Z,15
2022-09-28T14:37:07.120Z,13.8
2022-09-28T14:47:08.069Z,13.6
2022-09-28T14:57:09.103Z,14
2022-09-28T15:07:09.471Z,14
2022-09-28T15:17:10.051Z,13.6
2022-09-28T15:27:10.422Z,13.4
2022-09-28T15:37:10.535Z,13.2
2022-09-28T15:47:10.813Z,13.1
2022-09-28T15:57:11.328Z,12.9
2022-09-28T16:07:12.201Z,12.7
2022-09-28T16:17:13.105Z,12.6
2022-09-28T16:37:14.917Z,12.3
2022-09-28T16:47:15.429Z,12.1
2022-09-28T16:57:15.926Z,11.9
2022-09-28T17:07:16.361Z,11.8
2022-09-28T17:17:17.271Z,11.7
2022-09-28T17:27:17.749Z,11.5
2022-09-28T17:37:18.464Z,11.4
2022-09-28T17:57:19.839Z,11
2022-09-28T18:07:19.990Z,10.8
2022-09-28T18:17:20.984Z,10.6
2022-09-28T18:27:21.928Z,10.5
2022-09-28T18:37:22.318Z,10.4
2022-09-28T18:47:23.106Z,10.3
2022-09-28T18:57:23.306Z,10.2
2022-09-28T19:07:23.563Z,10.1
2022-09-28T19:17:24.103Z,9.9
2022-09-28T19:27:24.758Z,9.8
2022-09-28T19:47:26.222Z,9.5
2022-09-28T19:57:27.319Z,9.4
2022-09-28T20:07:27.609Z,9.3
2022-09-28T20:17:28.143Z,9.2
2022-09-28T20:47:30.048Z,8.8
2022-09-28T20:57:30.495Z,8.8
2022-09-28T21:37:33.650Z,8.4
2022-09-28T21:47:33.849Z,8.4
2022-09-28T21:57:34.810Z,8.3
2022-09-28T22:17:36.141Z,8.2
2022-09-28T22:27:37.141Z,8
2022-09-28T22:47:38.978Z,7.8
2022-09-28T22:57:39.898Z,7.7
2022-09-28T23:17:41.642Z,7.6
2022-09-28T23:27:41.949Z,7.5
2022-09-28T23:37:42.546Z,7.4
2022-09-28T23:47:42.857Z,7.1
2022-09-28T23:57:43.331Z,7
